createdAt,value
2022-08-09T00:00:33.586Z,16.77
2022-08-09T00:04:05.621Z,16.77
2022-08-09T00:06:19.833Z,16.77
2022-08-09T00:09:09.608Z,16.76
2022-08-09T00:12:03.950Z,16.76
2022-08-09T00:14:58.594Z,16.75
2022-08-09T00:18:10.262Z,16.74
2022-08-09T00:21:08.523Z,16.73
2022-08-09T00:24:02.582Z,16.75
2022-08-09T00:26:49.590Z,16.73
2022-08-09T00:30:10.290Z,16.74
2022-08-09T00:32:29.613Z,16.74
2022-08-09T00:35:03.329Z,16.74
2022-08-09T00:37:49.597Z,16.75
2022-08-09T00:40:30.340Z,16.76
2022-08-09T00:44:14.428Z,16.76
2022-08-09T00:46:56.928Z,16.76
2022-08-09T00:49:55.108Z,16.75
2022-08-09T00:52:50.611Z,16.76
2022-08-09T00:56:04.121Z,16.76
2022-08-09T00:58:35.860Z,16.76
2022-08-09T01:01:32.215Z,16.75
2022-08-09T01:04:10.689Z,16.75
2022-08-09T01:07:12.253Z,16.76
2022-08-09T01:10:04.633Z,16.76
2022-08-09T01:12:58.661Z,16.75
2022-08-09T01:15:51.711Z,16.75
2022-08-09T01:19:01.858Z,16.75
2022-08-09T01:22:19.658Z,16.73
2022-08-09T01:25:37.392Z,16.74
2022-08-09T01:28:37.632Z,16.72
2022-08-09T01:32:29.810Z,16.70
2022-08-09T01:34:33.635Z,16.67
2022-08-09T01:38:05.807Z,16.66
2022-08-09T01:40:34.640Z,16.66
2022-08-09T01:43:17.633Z,16.65
2022-08-09T01:45:53.920Z,16.65
2022-08-09T01:48:53.652Z,16.63
2022-08-09T01:51:44.480Z,16.62
2022-08-09T01:54:35.741Z,16.60
2022-08-09T01:57:27.639Z,16.59
2022-08-09T02:00:34.798Z,16.58
2022-08-09T02:03:22.653Z,16.58
2022-08-09T02:06:03.721Z,16.59
2022-08-09T02:08:58.807Z,16.58
2022-08-09T02:11:40.345Z,16.57
2022-08-09T02:14:32.667Z,16.58
2022-08-09T02:17:15.330Z,16.58
2022-08-09T02:20:15.895Z,16.57
2022-08-09T02:23:31.996Z,16.56
2022-08-09T02:26:28.665Z,16.56
2022-08-09T02:29:13.657Z,16.56
2022-08-09T02:32:14.678Z,16.54
2022-08-09T02:35:17.644Z,16.50
2022-08-09T02:38:00.681Z,16.49
2022-08-09T02:40:50.734Z,16.45
2022-08-09T02:43:25.733Z,16.43
2022-08-09T02:46:17.677Z,16.39
2022-08-09T02:48:58.679Z,16.36
2022-08-09T02:51:49.700Z,16.29
2022-08-09T02:54:35.659Z,16.24
2022-08-09T02:57:59.666Z,16.19
2022-08-09T03:00:47.674Z,16.16
2022-08-09T03:03:37.255Z,16.13
2022-08-09T03:06:30.683Z,16.11
2022-08-09T03:09:12.682Z,16.12
2022-08-09T03:12:05.398Z,16.09
2022-08-09T03:14:46.759Z,16.08
2022-08-09T03:17:35.702Z,16.06
2022-08-09T03:20:11.834Z,16.04
2022-08-09T03:23:00.321Z,16.04
2022-08-09T03:25:59.167Z,16.04
2022-08-09T03:28:44.694Z,16.05
2022-08-09T03:31:42.433Z,16.06
2022-08-09T03:34:17.770Z,16.05
2022-08-09T03:37:54.647Z,16.05
2022-08-09T03:39:58.848Z,16.04
2022-08-09T03:42:47.713Z,16.06
2022-08-09T03:46:03.148Z,16.05
2022-08-09T03:48:51.416Z,16.05
2022-08-09T03:51:56.727Z,16.05
2022-08-09T03:54:44.690Z,16.03
2022-08-09T03:57:20.936Z,16.05
2022-08-09T04:00:07.704Z,16.04
2022-08-09T04:02:52.623Z,16.02
2022-08-09T04:05:47.702Z,16.02
2022-08-09T04:08:34.700Z,16.04
2022-08-09T04:11:11.160Z,16.02
2022-08-09T04:14:52.914Z,16.02
2022-08-09T04:16:50.838Z,16.01
2022-08-09T04:19:42.894Z,16.01
2022-08-09T04:22:32.090Z,16.01
2022-08-09T04:25:26.719Z,16.01
2022-08-09T04:28:30.827Z,16.01
2022-08-09T04:31:22.733Z,16.01
2022-08-09T04:34:06.892Z,16.00
2022-08-09T04:37:00.746Z,16.01
2022-08-09T04:39:49.240Z,16.01
2022-08-09T04:42:23.622Z,16.02
2022-08-09T04:45:11.723Z,16.04
2022-08-09T04:47:58.787Z,16.05
2022-08-09T04:50:50.086Z,16.08
2022-08-09T04:53:23.817Z,16.08
2022-08-09T04:56:12.740Z,16.10
2022-08-09T04:58:52.821Z,16.14
2022-08-09T05:01:41.736Z,16.17
2022-08-09T05:04:14.890Z,16.23
2022-08-09T05:07:01.727Z,16.34
2022-08-09T05:09:49.370Z,16.44
2022-08-09T05:12:37.731Z,16.58
2022-08-09T05:15:38.579Z,16.75
2022-08-09T05:18:57.553Z,16.94
2022-08-09T05:21:47.253Z,17.15
2022-08-09T05:24:32.743Z,17.31
2022-08-09T05:27:19.778Z,17.48
2022-08-09T05:29:52.825Z,17.66
2022-08-09T05:32:39.764Z,17.75
2022-08-09T05:35:23.753Z,17.80
2022-08-09T05:38:21.784Z,17.81
2022-08-09T05:41:15.765Z,17.81
2022-08-09T05:44:09.760Z,17.78
2022-08-09T05:47:04.900Z,17.73
2022-08-09T05:50:34.979Z,17.69
2022-08-09T05:53:11.764Z,17.64
2022-08-09T05:55:59.908Z,17.60
2022-08-09T05:58:48.778Z,17.57
2022-08-09T06:01:21.860Z,17.55
2022-08-09T06:04:09.829Z,17.54
2022-08-09T06:06:49.822Z,17.53
2022-08-09T06:09:54.823Z,17.51
2022-08-09T06:12:29.867Z,17.48
2022-08-09T06:15:16.785Z,17.47
2022-08-09T06:17:51.671Z,17.46
2022-08-09T06:20:38.803Z,17.45
2022-08-09T06:23:15.644Z,17.47
2022-08-09T06:26:02.813Z,17.50
2022-08-09T06:28:35.879Z,17.52
2022-08-09T06:31:31.041Z,17.54
2022-08-09T06:34:11.803Z,17.60
2022-08-09T06:37:10.173Z,17.63
2022-08-09T06:39:59.783Z,17.68
2022-08-09T06:42:33.911Z,17.71
2022-08-09T06:46:07.285Z,17.74
2022-08-09T06:48:30.528Z,17.79
2022-08-09T06:51:18.789Z,17.83
2022-08-09T06:54:00.913Z,17.87
2022-08-09T06:56:47.797Z,17.91
2022-08-09T07:00:54.583Z,17.97
2022-08-09T07:02:29.533Z,17.99
2022-08-09T07:05:11.817Z,18.00
2022-08-09T07:08:01.892Z,18.01
2022-08-09T07:10:44.844Z,18.02
2022-08-09T07:13:45.106Z,18.04
2022-08-09T07:16:57.956Z,18.07
2022-08-09T07:19:44.825Z,18.11
2022-08-09T07:22:34.255Z,18.12
2022-08-09T07:25:21.828Z,18.13
2022-08-09T07:27:55.449Z,18.16
2022-08-09T07:30:42.844Z,18.16
2022-08-09T07:33:16.709Z,18.23
2022-08-09T07:36:03.840Z,18.27
2022-08-09T07:38:37.937Z,18.28
2022-08-09T07:41:25.840Z,18.29
2022-08-09T07:44:00.012Z,18.34
2022-08-09T07:46:46.849Z,18.36
2022-08-09T07:49:20.920Z,18.38
2022-08-09T07:52:16.809Z,18.38
2022-08-09T07:54:57.838Z,18.38
2022-08-09T07:57:54.855Z,18.36
2022-08-09T08:00:49.299Z,18.35
2022-08-09T08:03:36.973Z,18.37
2022-08-09T08:06:31.952Z,18.35
2022-08-09T08:09:35.578Z,18.36
2022-08-09T08:12:28.047Z,18.36
2022-08-09T08:15:17.315Z,18.38
2022-08-09T08:17:57.948Z,18.38
2022-08-09T08:20:45.832Z,18.39
2022-08-09T08:23:27.242Z,18.44
2022-08-09T08:26:13.861Z,18.48
2022-08-09T08:28:50.865Z,18.52
2022-08-09T08:32:01.038Z,18.61
2022-08-09T08:34:37.858Z,18.72
2022-08-09T08:37:41.305Z,18.78
2022-08-09T08:40:41.870Z,18.84
2022-08-09T08:43:14.954Z,18.91
2022-08-09T08:46:32.458Z,18.91
2022-08-09T08:49:01.977Z,18.94
2022-08-09T08:52:00.267Z,18.98
2022-08-09T08:54:41.869Z,19.07
2022-08-09T08:57:37.284Z,19.09
2022-08-09T09:00:27.827Z,19.10
2022-08-09T09:03:22.714Z,19.17
2022-08-09T09:06:18.871Z,19.20
2022-08-09T09:09:40.984Z,19.22
2022-08-09T09:12:00.945Z,19.28
2022-08-09T09:14:48.880Z,19.36
2022-08-09T09:17:30.862Z,19.45
2022-08-09T09:20:41.920Z,19.60
2022-08-09T09:23:15.020Z,19.70
2022-08-09T09:26:12.352Z,19.74
2022-08-09T09:29:03.604Z,19.75
2022-08-09T09:32:03.861Z,19.83
2022-08-09T09:34:48.022Z,19.94
2022-08-09T09:37:36.902Z,20.01
2022-08-09T09:40:15.064Z,20.09
2022-08-09T09:43:04.898Z,20.07
2022-08-09T09:49:16.902Z,20.30
2022-08-09T09:52:35.783Z,20.39
2022-08-09T09:55:32.657Z,20.44
2022-08-09T09:58:20.214Z,20.37
2022-08-09T10:01:01.009Z,20.33
2022-08-09T10:03:58.220Z,20.24
2022-08-09T10:06:46.975Z,20.17
2022-08-09T10:10:03.912Z,20.13
2022-08-09T10:12:53.361Z,20.11
2022-08-09T10:16:54.623Z,20.08
2022-08-09T10:19:10.111Z,20.02
2022-08-09T10:22:00.338Z,19.98
2022-08-09T10:24:49.872Z,19.94
2022-08-09T10:27:38.477Z,19.92
2022-08-09T10:34:11.216Z,19.79
2022-08-09T10:37:03.062Z,19.80
2022-08-09T10:39:50.028Z,19.79
2022-08-09T10:42:26.981Z,19.80
2022-08-09T10:45:17.105Z,19.83
2022-08-09T10:48:30.660Z,19.83
2022-08-09T10:51:44.934Z,19.82
2022-08-09T10:54:31.961Z,19.79
2022-08-09T10:57:26.935Z,19.76
2022-08-09T11:00:35.294Z,19.73
2022-08-09T11:03:50.079Z,19.73
2022-08-09T11:06:23.190Z,19.74
2022-08-09T11:08:59.736Z,19.77
2022-08-09T11:12:05.079Z,19.79
2022-08-09T11:14:48.550Z,19.83
2022-08-09T11:17:27.963Z,19.88
2022-08-09T11:20:22.061Z,19.88
2022-08-09T11:23:07.093Z,19.90
2022-08-09T11:25:54.655Z,19.89
2022-08-09T11:28:55.701Z,19.92
2022-08-09T11:31:53.023Z,19.95
2022-08-09T11:34:56.750Z,19.99
2022-08-09T11:37:49.837Z,20.01
2022-08-09T11:40:44.064Z,20.06
2022-08-09T11:43:37.386Z,20.08
2022-08-09T11:46:33.349Z,20.12
2022-08-09T11:49:28.958Z,20.14
2022-08-09T11:53:03.757Z,20.16
2022-08-09T11:55:53.216Z,20.14
2022-08-09T11:58:50.226Z,20.14
2022-08-09T12:02:16.263Z,20.11
2022-08-09T12:04:47.053Z,20.07
2022-08-09T12:07:42.142Z,20.06
2022-08-09T12:10:38.258Z,20.09
2022-08-09T12:14:10.160Z,20.12
2022-08-09T12:16:37.603Z,20.16
2022-08-09T12:19:35.023Z,20.18
2022-08-09T12:22:13.097Z,20.21
2022-08-09T12:25:18.000Z,20.21
2022-08-09T12:29:11.662Z,20.21
2022-08-09T12:32:02.654Z,20.22
2022-08-09T12:34:49.006Z,20.23
2022-08-09T12:37:51.734Z,20.23
2022-08-09T12:40:37.020Z,20.23
2022-08-09T12:44:06.115Z,20.22
2022-08-09T12:46:42.006Z,20.24
2022-08-09T12:49:23.993Z,20.25
2022-08-09T12:52:19.019Z,20.27
2022-08-09T12:56:13.056Z,20.26
2022-08-09T12:58:24.210Z,20.26
2022-08-09T13:01:08.052Z,20.22
2022-08-09T13:03:57.408Z,20.21
2022-08-09T13:06:49.021Z,20.19
2022-08-09T13:09:38.328Z,20.15
2022-08-09T13:12:28.153Z,20.13
2022-08-09T13:15:14.076Z,20.09
2022-08-09T13:18:17.252Z,20.06
2022-08-09T13:21:04.073Z,20.06
2022-08-09T13:24:42.278Z,20.06
2022-08-09T13:26:59.923Z,20.07
2022-08-09T13:30:04.370Z,20.08
2022-08-09T13:33:11.998Z,20.08
2022-08-09T13:36:41.538Z,20.11
2022-08-09T13:41:46.297Z,20.12
2022-08-09T13:42:18.193Z,20.14
2022-08-09T13:45:08.458Z,20.15
2022-08-09T13:47:51.219Z,20.14
2022-08-09T13:50:41.055Z,20.15
2022-08-09T13:53:16.748Z,20.16
2022-08-09T13:56:03.073Z,20.14
2022-08-09T13:58:36.144Z,20.14
2022-08-09T14:01:56.221Z,20.15
2022-08-09T14:04:23.656Z,20.14
2022-08-09T14:07:11.041Z,20.15
2022-08-09T14:09:44.176Z,20.14
2022-08-09T14:12:31.261Z,20.12
2022-08-09T14:15:06.862Z,20.13
2022-08-09T14:18:19.700Z,20.10
2022-08-09T14:21:08.064Z,20.11
2022-08-09T14:24:18.337Z,20.11
2022-08-09T14:27:02.301Z,20.11
2022-08-09T14:30:34.905Z,20.11
2022-08-09T14:32:42.330Z,20.12
2022-08-09T14:35:52.231Z,20.13
2022-08-09T14:38:40.064Z,20.13
2022-08-09T14:41:34.409Z,20.14
2022-08-09T14:44:32.622Z,20.13
2022-08-09T14:47:46.615Z,20.13
2022-08-09T14:50:43.077Z,20.11
2022-08-09T14:53:32.084Z,20.13
2022-08-09T14:56:21.705Z,20.12
2022-08-09T14:59:20.080Z,20.12
2022-08-09T15:02:08.120Z,20.11
2022-08-09T15:04:42.179Z,20.10
2022-08-09T15:07:30.773Z,20.10
2022-08-09T15:10:16.100Z,20.08
2022-08-09T15:13:04.110Z,20.07
2022-08-09T15:15:38.984Z,20.07
2022-08-09T15:18:26.077Z,20.06
2022-08-09T15:21:55.796Z,20.04
2022-08-09T15:24:19.137Z,20.05
2022-08-09T15:26:57.777Z,20.04
2022-08-09T15:30:55.711Z,20.03
2022-08-09T15:32:46.413Z,20.02
2022-08-09T15:35:45.113Z,20.00
2022-08-09T15:38:56.492Z,19.98
2022-08-09T15:41:50.749Z,20.00
2022-08-09T15:44:38.139Z,20.00
2022-08-09T15:47:14.548Z,20.01
2022-08-09T15:50:19.114Z,20.00
2022-08-09T15:54:02.322Z,20.05
2022-08-09T15:56:29.005Z,20.05
2022-08-09T15:59:25.140Z,20.02
2022-08-09T16:02:27.319Z,19.98
2022-08-09T16:05:08.135Z,19.95
2022-08-09T16:08:02.137Z,19.93
2022-08-09T16:10:55.585Z,19.91
2022-08-09T16:14:04.238Z,19.87
2022-08-09T16:16:38.965Z,19.85
2022-08-09T16:19:17.203Z,19.83
2022-08-09T16:22:05.142Z,19.80
2022-08-09T16:24:45.140Z,19.78
2022-08-09T16:27:52.933Z,19.76
2022-08-09T16:30:59.287Z,19.74
2022-08-09T16:33:53.138Z,19.72
2022-08-09T16:36:49.134Z,19.70
2022-08-09T16:39:29.225Z,19.69
2022-08-09T16:42:27.124Z,19.65
2022-08-09T16:45:00.217Z,19.64
2022-08-09T16:48:40.922Z,19.60
2022-08-09T16:50:59.445Z,19.57
2022-08-09T16:54:34.578Z,19.54
2022-08-09T16:57:08.247Z,19.51
2022-08-09T16:59:50.268Z,19.50
2022-08-09T17:02:46.386Z,19.45
2022-08-09T17:05:20.250Z,19.43
2022-08-09T17:08:46.753Z,19.39
2022-08-09T17:11:08.174Z,19.36
2022-08-09T17:14:05.161Z,19.34
2022-08-09T17:16:52.187Z,19.31
2022-08-09T17:20:11.124Z,19.28
2022-08-09T17:22:50.219Z,19.27
2022-08-09T17:25:39.170Z,19.23
2022-08-09T17:28:13.243Z,19.20
2022-08-09T17:31:00.182Z,19.19
2022-08-09T17:33:36.011Z,19.15
2022-08-09T17:36:25.186Z,19.13
2022-08-09T17:39:00.269Z,19.10
2022-08-09T17:41:49.979Z,19.07
2022-08-09T17:44:42.026Z,19.03
2022-08-09T17:47:49.464Z,18.98
2022-08-09T17:50:37.316Z,18.94
2022-08-09T17:53:24.174Z,18.88
2022-08-09T17:56:02.042Z,18.84
2022-08-09T17:58:53.185Z,18.80
2022-08-09T18:02:03.814Z,18.74
2022-08-09T18:04:34.211Z,18.69
2022-08-09T18:07:09.292Z,18.63
2022-08-09T18:10:10.197Z,18.57
2022-08-09T18:13:39.876Z,18.50
2022-08-09T18:16:08.053Z,18.44
2022-08-09T18:18:49.045Z,18.38
2022-08-09T18:21:40.965Z,18.32
2022-08-09T18:24:16.326Z,18.24
2022-08-09T18:27:03.180Z,18.19
2022-08-09T18:30:38.342Z,18.12
2022-08-09T18:32:53.988Z,18.02
2022-08-09T18:35:58.023Z,17.95
2022-08-09T18:38:28.226Z,17.86
2022-08-09T18:41:08.239Z,17.81
2022-08-09T18:43:53.130Z,17.77
2022-08-09T18:46:48.546Z,17.70
2022-08-09T18:49:41.530Z,17.63
2022-08-09T18:52:37.630Z,17.58
2022-08-09T18:55:56.296Z,17.51
2022-08-09T18:58:47.235Z,17.43
2022-08-09T19:01:43.518Z,17.36
2022-08-09T19:04:35.129Z,17.29
2022-08-09T19:07:22.262Z,17.24
2022-08-09T19:10:15.293Z,17.18
2022-08-09T19:13:15.474Z,17.09
2022-08-09T19:15:55.685Z,17.03
2022-08-09T19:18:45.462Z,16.96
2022-08-09T19:21:51.774Z,16.91
2022-08-09T19:24:33.505Z,16.87
2022-08-09T19:27:14.330Z,16.84
2022-08-09T19:30:22.689Z,16.80
2022-08-09T19:32:55.410Z,16.75
2022-08-09T19:35:56.497Z,16.70
2022-08-09T19:38:39.818Z,16.64
2022-08-09T19:41:35.390Z,16.60
2022-08-09T19:44:29.405Z,16.56
2022-08-09T19:47:09.276Z,16.54
2022-08-09T19:50:07.978Z,16.52
2022-08-09T19:52:52.462Z,16.48
2022-08-09T19:56:02.954Z,16.47
2022-08-09T19:58:34.241Z,16.43
2022-08-09T20:01:14.378Z,16.39
2022-08-09T20:04:25.267Z,16.38
2022-08-09T20:06:54.352Z,16.36
2022-08-09T20:09:44.494Z,16.32
2022-08-09T20:12:30.202Z,16.26
2022-08-09T20:16:37.680Z,16.22
2022-08-09T20:18:28.012Z,16.14
2022-08-09T20:21:09.301Z,16.13
2022-08-09T20:23:57.246Z,16.09
2022-08-09T20:26:37.321Z,16.07
2022-08-09T20:29:37.323Z,16.03
2022-08-09T20:32:30.808Z,15.99
2022-08-09T20:35:14.265Z,15.92
2022-08-09T20:38:20.416Z,15.89
2022-08-09T20:41:35.157Z,15.84
2022-08-09T20:44:26.978Z,15.80
2022-08-09T20:47:03.398Z,15.76
2022-08-09T20:49:57.310Z,15.72
2022-08-09T20:52:52.293Z,15.68
2022-08-09T20:55:47.153Z,15.62
2022-08-09T20:58:39.298Z,15.61
2022-08-09T21:01:34.012Z,15.62
2022-08-09T21:05:51.262Z,15.58
2022-08-09T21:07:40.411Z,15.59
2022-08-09T21:10:15.546Z,15.55
2022-08-09T21:13:02.307Z,15.51
2022-08-09T21:15:35.431Z,15.46
2022-08-09T21:18:27.400Z,15.40
2022-08-09T21:21:01.425Z,15.37
2022-08-09T21:24:04.329Z,15.35
2022-08-09T21:26:37.457Z,15.34
2022-08-09T21:29:26.309Z,15.31
2022-08-09T21:32:00.738Z,15.29
2022-08-09T21:34:51.293Z,15.28
2022-08-09T21:37:25.419Z,15.27
2022-08-09T21:40:21.976Z,15.20
2022-08-09T21:43:11.283Z,15.18
2022-08-09T21:45:54.395Z,15.12
2022-08-09T21:48:42.826Z,15.09
2022-08-09T21:51:24.577Z,15.07
2022-08-09T21:54:23.310Z,15.04
2022-08-09T21:56:58.406Z,15.00
2022-08-09T21:59:45.323Z,14.95
2022-08-09T22:02:19.498Z,14.94
2022-08-09T22:05:23.843Z,14.91
2022-08-09T22:08:12.952Z,14.89
2022-08-09T22:11:49.352Z,14.86
2022-08-09T22:14:02.317Z,14.83
2022-08-09T22:16:56.330Z,14.84
2022-08-09T22:19:59.683Z,14.81
2022-08-09T22:22:35.656Z,14.80
2022-08-09T22:26:06.653Z,14.80
2022-08-09T22:28:29.657Z,14.76
2022-08-09T22:31:19.338Z,14.74
2022-08-09T22:34:00.311Z,14.71
2022-08-09T22:36:47.352Z,14.69
2022-08-09T22:39:56.045Z,14.68
2022-08-09T22:42:29.338Z,14.66
2022-08-09T22:48:14.265Z,14.66
2022-08-09T22:48:34.954Z,14.65
2022-08-09T22:51:23.900Z,14.62
2022-08-09T22:54:11.327Z,14.61
2022-08-09T22:56:45.417Z,14.58
2022-08-09T22:59:55.518Z,14.53
2022-08-09T23:02:30.475Z,14.51
2022-08-09T23:05:17.355Z,14.50
2022-08-09T23:08:27.759Z,14.49
2022-08-09T23:11:22.367Z,14.43
2022-08-09T23:13:58.732Z,14.39
2022-08-09T23:16:45.365Z,14.31
2022-08-09T23:19:18.476Z,14.31
2022-08-09T23:22:05.361Z,14.28
2022-08-09T23:24:38.615Z,14.26
2022-08-09T23:27:25.369Z,14.22
2022-08-09T23:29:58.449Z,14.17
2022-08-09T23:32:45.349Z,14.13
2022-08-09T23:35:25.368Z,14.07
2022-08-09T23:38:19.385Z,13.97
2022-08-09T23:41:06.388Z,13.88
2022-08-09T23:43:39.446Z,13.82
2022-08-09T23:46:26.357Z,13.78
2022-08-09T23:48:59.512Z,13.75
2022-08-09T23:51:53.385Z,13.73
2022-08-09T23:54:47.400Z,13.68
2022-08-09T23:57:34.368Z,13.62
